Cortez, Florida
Current Conditions -  °F | °C
As of 11:53 PM on Saturday 25 Oct 2014 (Local Time) from KSRQ Reporting Station
Clear Clear  
Wind Chill: 65°   Ceiling: Unl
Heat Index: 65°   Visibility: 10mi
Dew Point: 57°   Wind: 6mph
Humidity: 75%   Direction: 20°NNE
Pressure: 29.99"   Gusts: NA
Location:  27.47°N, 82.67°W
Report Text: KSRQ 260353Z AUTO 02005KT 10SM CLR 18/14 A2999 RMK AO2 SLP154 T01830139
Loading
Personal Weather Stations






























Interactive Weather Map
Tropical Storm Tracking
New forecast layout! Learn more

10-Day Weather Forecast

Advertisements
Track Severe Weather on mobile